createdAt,value
2022-09-05T00:01:27.693Z,70.10
2022-09-05T00:04:03.253Z,70.00
2022-09-05T00:06:59.333Z,70.00
2022-09-05T00:09:51.201Z,70.00
2022-09-05T00:12:19.515Z,70.00
2022-09-05T00:15:18.450Z,70.00
2022-09-05T00:22:05.038Z,70.00
2022-09-05T00:24:27.972Z,70.00
2022-09-05T00:24:34.703Z,69.90
2022-09-05T00:26:59.666Z,70.00
2022-09-05T00:31:05.404Z,69.90
2022-09-05T00:32:39.455Z,70.00
2022-09-05T00:35:26.000Z,69.90
2022-09-05T00:37:55.260Z,69.90
2022-09-05T00:40:30.189Z,69.80
2022-09-05T00:43:02.923Z,69.80
2022-09-05T00:45:37.838Z,69.80
2022-09-05T00:48:20.297Z,69.80
2022-09-05T00:51:03.773Z,69.80
2022-09-05T00:53:41.549Z,69.80
2022-09-05T00:56:27.374Z,69.80
2022-09-05T00:59:22.491Z,69.80
2022-09-05T01:01:59.426Z,69.70
2022-09-05T01:04:39.172Z,69.70
2022-09-05T01:07:23.789Z,69.80
2022-09-05T01:10:03.800Z,70.50
2022-09-05T01:12:53.016Z,69.70
2022-09-05T01:15:32.501Z,69.70
2022-09-05T01:18:23.715Z,69.70
2022-09-05T01:21:08.559Z,69.70
2022-09-05T01:23:53.335Z,69.70
2022-09-05T01:26:46.211Z,69.70
2022-09-05T01:29:25.768Z,69.70
2022-09-05T01:32:09.551Z,69.60
2022-09-05T01:34:49.853Z,69.70
2022-09-05T01:37:29.721Z,69.60
2022-09-05T01:40:16.945Z,69.60
2022-09-05T01:42:56.888Z,69.60
2022-09-05T01:45:39.705Z,69.50
2022-09-05T01:48:14.051Z,69.50
2022-09-05T01:50:47.973Z,69.50
2022-09-05T01:53:26.262Z,69.60
2022-09-05T01:56:27.803Z,69.50
2022-09-05T01:59:07.901Z,69.50
2022-09-05T02:01:56.304Z,69.50
2022-09-05T02:04:50.553Z,69.50
2022-09-05T02:07:31.122Z,69.50
2022-09-05T02:10:30.575Z,69.50
2022-09-05T02:13:11.357Z,69.50
2022-09-05T02:15:46.488Z,69.50
2022-09-05T02:18:39.026Z,69.50
2022-09-05T02:21:14.468Z,69.50
2022-09-05T02:23:47.899Z,69.50
2022-09-05T02:26:23.391Z,69.50
2022-09-05T02:28:56.623Z,69.50
2022-09-05T02:31:29.813Z,69.50
2022-09-05T02:34:04.149Z,69.50
2022-09-05T02:36:39.501Z,69.40
2022-09-05T02:45:01.542Z,69.50
2022-09-05T02:45:13.248Z,69.50
2022-09-05T02:45:25.597Z,69.40
2022-09-05T02:48:14.767Z,69.40
2022-09-05T02:57:23.075Z,69.40
2022-09-05T02:57:34.570Z,69.40
2022-09-05T02:57:35.417Z,69.40
2022-09-05T02:59:51.349Z,69.40
2022-09-05T03:02:27.939Z,69.40
2022-09-05T03:05:05.169Z,69.40
2022-09-05T03:08:06.698Z,69.40
2022-09-05T03:11:11.982Z,69.40
2022-09-05T03:14:21.186Z,69.40
2022-09-05T03:17:33.305Z,69.50
2022-09-05T03:20:36.395Z,69.40
2022-09-05T03:23:52.538Z,69.50
2022-09-05T03:27:01.618Z,69.40
2022-09-05T03:30:02.730Z,69.40
2022-09-05T03:33:24.216Z,69.40
2022-09-05T03:36:30.381Z,69.40
2022-09-05T03:40:00.732Z,69.40
2022-09-05T03:42:58.372Z,69.30
2022-09-05T03:45:41.873Z,69.30
2022-09-05T03:48:32.672Z,69.40
2022-09-05T03:57:07.218Z,69.40
2022-09-05T03:57:20.725Z,69.40
2022-09-05T03:57:43.336Z,69.40
2022-09-05T04:00:21.492Z,69.40
2022-09-05T04:08:06.613Z,69.40
2022-09-05T04:08:23.788Z,69.30
2022-09-05T04:09:04.538Z,69.30
2022-09-05T04:11:37.599Z,69.40
2022-09-05T04:14:10.967Z,69.40
2022-09-05T04:16:50.970Z,69.30
2022-09-05T04:19:27.588Z,69.30
2022-09-05T04:22:04.133Z,69.30
2022-09-05T04:24:43.148Z,69.30
2022-09-05T04:27:36.068Z,69.30
2022-09-05T04:30:38.378Z,69.30
2022-09-05T04:33:19.021Z,69.20
2022-09-05T04:35:58.349Z,69.20
2022-09-05T04:38:37.957Z,69.20
2022-09-05T04:41:10.239Z,69.20
2022-09-05T04:43:43.575Z,69.20
2022-09-05T04:46:19.454Z,69.20
2022-09-05T04:48:56.733Z,69.20
2022-09-05T04:51:44.065Z,69.20
2022-09-05T04:54:30.239Z,69.30
2022-09-05T04:57:14.364Z,69.30
2022-09-05T05:03:33.338Z,69.40
2022-09-05T05:06:17.755Z,69.40
2022-09-05T05:06:23.677Z,69.30
2022-09-05T05:08:39.085Z,69.30
2022-09-05T05:17:55.704Z,68.90
2022-09-05T05:17:57.927Z,68.70
2022-09-05T05:18:12.193Z,68.80
2022-09-05T05:20:42.289Z,68.80
2022-09-05T05:22:38.278Z,68.60
2022-09-05T05:25:12.847Z,68.70
2022-09-05T05:27:47.344Z,68.70
2022-09-05T05:30:26.348Z,68.60
2022-09-05T05:32:55.794Z,68.70
2022-09-05T05:35:30.373Z,68.60
2022-09-05T05:38:10.799Z,68.60
2022-09-05T05:40:51.064Z,68.50
2022-09-05T05:43:23.286Z,68.50
2022-09-05T05:45:57.985Z,68.40
2022-09-05T05:48:31.421Z,68.30
2022-09-05T05:51:20.558Z,68.20
2022-09-05T05:54:11.829Z,68.10
2022-09-05T05:57:17.010Z,68.00
2022-09-05T06:00:00.743Z,67.90
2022-09-05T06:03:26.269Z,67.90
2022-09-05T06:06:23.554Z,67.90
2022-09-05T06:14:56.592Z,67.90
2022-09-05T06:15:01.183Z,67.90
2022-09-05T06:15:59.078Z,67.90
2022-09-05T06:19:19.765Z,68.00
2022-09-05T06:22:11.423Z,68.00
2022-09-05T06:25:29.471Z,68.00
2022-09-05T06:28:20.037Z,68.10
2022-09-05T06:31:02.138Z,68.10
2022-09-05T06:33:59.124Z,68.20
2022-09-05T06:36:38.331Z,68.30
2022-09-05T06:39:16.230Z,68.30
2022-09-05T06:41:59.150Z,68.40
2022-09-05T06:44:42.899Z,68.40
2022-09-05T06:47:23.699Z,68.40
2022-09-05T06:50:24.360Z,68.40
2022-09-05T06:53:24.949Z,68.50
2022-09-05T06:56:06.381Z,68.60
2022-09-05T06:59:09.744Z,68.60
2022-09-05T07:02:00.413Z,68.60
2022-09-05T07:05:24.863Z,68.60
2022-09-05T07:07:30.069Z,68.70
2022-09-05T07:10:12.323Z,68.60
2022-09-05T07:12:54.609Z,68.60
2022-09-05T07:15:35.349Z,68.60
2022-09-05T07:18:13.316Z,68.60
2022-09-05T07:21:16.945Z,68.60
2022-09-05T07:24:06.221Z,68.60
2022-09-05T07:26:54.331Z,68.60
2022-09-05T07:29:30.368Z,68.60
2022-09-05T07:32:00.010Z,68.70
2022-09-05T07:34:30.802Z,68.60
2022-09-05T07:37:15.220Z,68.60
2022-09-05T07:39:49.296Z,69.50
2022-09-05T07:42:21.810Z,68.80
2022-09-05T07:44:56.283Z,68.90
2022-09-05T07:47:28.651Z,69.10
2022-09-05T07:50:41.521Z,69.30
2022-09-05T07:56:49.702Z,69.30
2022-09-05T07:56:58.569Z,69.40
2022-09-05T07:58:37.023Z,69.60
2022-09-05T08:01:06.636Z,69.70
2022-09-05T08:03:35.193Z,69.60
2022-09-05T08:06:07.157Z,69.70
2022-09-05T08:09:21.472Z,69.70
2022-09-05T08:11:41.500Z,69.80
2022-09-05T08:14:43.968Z,69.80
2022-09-05T08:17:19.305Z,69.80
2022-09-05T08:20:23.035Z,69.80
2022-09-05T08:22:57.249Z,69.90
2022-09-05T08:25:45.790Z,69.80
2022-09-05T08:28:25.270Z,69.90
2022-09-05T08:31:14.216Z,69.80
2022-09-05T08:33:44.837Z,69.90
2022-09-05T08:36:24.574Z,69.90
2022-09-05T08:38:54.116Z,69.90
2022-09-05T08:41:43.001Z,69.90
2022-09-05T08:46:47.737Z,69.90
2022-09-05T08:47:25.720Z,69.90
2022-09-05T08:50:21.335Z,69.90
2022-09-05T08:53:26.813Z,69.90
2022-09-05T08:56:05.985Z,69.90
2022-09-05T08:58:49.981Z,69.90
2022-09-05T09:01:30.862Z,69.90
2022-09-05T09:04:35.759Z,69.90
2022-09-05T09:07:47.773Z,69.80
2022-09-05T09:10:11.984Z,69.80
2022-09-05T09:13:18.365Z,69.70
2022-09-05T09:15:53.673Z,69.70
2022-09-05T09:18:22.208Z,69.60
2022-09-05T09:20:53.715Z,69.60
2022-09-05T09:23:40.952Z,69.50
2022-09-05T09:26:15.718Z,69.50
2022-09-05T09:28:52.035Z,69.60
2022-09-05T09:31:47.055Z,69.70
2022-09-05T09:34:39.552Z,69.80
2022-09-05T09:37:49.608Z,70.00
2022-09-05T09:41:07.555Z,69.90
2022-09-05T09:44:02.101Z,70.80
2022-09-05T09:46:40.244Z,70.00
2022-09-05T09:49:28.251Z,69.90
2022-09-05T09:52:29.733Z,69.70
2022-09-05T09:55:40.810Z,69.60
2022-09-05T09:58:42.007Z,69.30
2022-09-05T10:01:36.126Z,69.10
2022-09-05T10:10:33.744Z,69.00
2022-09-05T10:10:58.215Z,69.00
2022-09-05T10:11:51.967Z,68.90
2022-09-05T10:14:50.883Z,68.80
2022-09-05T10:17:49.029Z,68.80
2022-09-05T10:20:39.569Z,68.70
2022-09-05T10:23:44.702Z,68.60
2022-09-05T10:26:57.490Z,68.60
2022-09-05T10:29:46.528Z,68.60
2022-09-05T10:35:07.537Z,68.60
2022-09-05T10:35:24.637Z,68.60
2022-09-05T10:37:59.301Z,68.60
2022-09-05T10:40:30.561Z,68.60
2022-09-05T10:43:16.730Z,68.50
2022-09-05T10:45:53.945Z,68.60
2022-09-05T10:48:25.807Z,68.50
2022-09-05T10:51:01.455Z,68.50
2022-09-05T10:53:39.993Z,68.40
2022-09-05T10:56:14.150Z,68.30
2022-09-05T11:02:18.641Z,68.30
2022-09-05T11:02:30.481Z,68.40
2022-09-05T11:04:50.215Z,68.30
2022-09-05T11:07:29.288Z,68.40
2022-09-05T11:10:08.052Z,68.50
2022-09-05T11:12:57.234Z,68.60
2022-09-05T11:15:32.194Z,68.60
2022-09-05T11:18:04.770Z,68.50
2022-09-05T11:20:47.293Z,68.60
2022-09-05T11:23:21.639Z,68.50
2022-09-05T11:26:00.635Z,68.40
2022-09-05T11:28:38.948Z,68.30
2022-09-05T11:31:30.352Z,68.40
2022-09-05T11:39:59.857Z,68.40
2022-09-05T11:40:02.933Z,68.30
2022-09-05T11:41:28.896Z,68.30
2022-09-05T11:44:25.316Z,68.20
2022-09-05T11:47:33.195Z,68.20
2022-09-05T11:50:28.428Z,68.10
2022-09-05T11:53:32.779Z,68.00
2022-09-05T11:56:41.907Z,67.80
2022-09-05T11:59:47.693Z,67.70
2022-09-05T12:02:33.425Z,67.50
2022-09-05T12:05:48.923Z,67.30
2022-09-05T12:08:28.959Z,67.10
2022-09-05T12:11:09.032Z,67.00
2022-09-05T12:13:45.367Z,66.90
2022-09-05T12:16:36.090Z,66.90
2022-09-05T12:19:18.982Z,66.80
2022-09-05T12:22:09.081Z,66.80
2022-09-05T12:26:25.516Z,66.70
2022-09-05T12:28:15.226Z,67.40
2022-09-05T12:31:53.910Z,66.50
2022-09-05T12:36:03.896Z,66.40
2022-09-05T12:40:54.274Z,66.40
2022-09-05T12:41:37.036Z,66.40
2022-09-05T12:42:38.659Z,66.30
2022-09-05T12:45:18.798Z,66.20
2022-09-05T12:47:59.367Z,66.10
2022-09-05T12:50:35.510Z,66.70
2022-09-05T12:53:10.529Z,65.70
2022-09-05T12:55:47.043Z,65.50
2022-09-05T13:02:55.408Z,65.40
2022-09-05T13:03:07.650Z,65.30
2022-09-05T13:04:25.321Z,65.20
2022-09-05T13:07:02.430Z,65.30
2022-09-05T13:10:00.608Z,65.30
2022-09-05T13:14:56.585Z,65.40
2022-09-05T13:15:26.846Z,65.40
2022-09-05T13:18:00.834Z,65.40
2022-09-05T13:20:34.792Z,65.60
2022-09-05T13:23:11.022Z,65.70
2022-09-05T13:25:43.557Z,65.80
2022-09-05T13:28:15.538Z,65.80
2022-09-05T13:37:53.696Z,65.90
2022-09-05T13:38:13.698Z,66.00
2022-09-05T13:38:19.873Z,66.10
2022-09-05T13:39:28.309Z,66.10
2022-09-05T13:42:03.499Z,66.10
2022-09-05T13:44:40.320Z,66.20
2022-09-05T13:47:29.341Z,66.20
2022-09-05T13:50:11.507Z,66.30
2022-09-05T13:52:43.476Z,66.40
2022-09-05T13:55:22.076Z,66.40
2022-09-05T13:57:54.783Z,66.50
2022-09-05T14:00:52.811Z,66.40
2022-09-05T14:03:50.222Z,66.50
2022-09-05T14:06:46.300Z,66.50
2022-09-05T14:09:36.971Z,66.50
2022-09-05T14:12:12.306Z,66.30
2022-09-05T14:17:53.393Z,65.80
2022-09-05T14:20:43.243Z,65.60
2022-09-05T14:23:15.443Z,65.60
2022-09-05T14:25:48.575Z,65.60
2022-09-05T14:28:28.682Z,65.60
2022-09-05T14:33:19.192Z,65.60
2022-09-05T14:37:45.203Z,65.60
2022-09-05T14:37:50.762Z,65.50
2022-09-05T14:40:47.401Z,65.60
2022-09-05T14:43:33.585Z,65.60
2022-09-05T14:46:17.452Z,65.60
2022-09-05T14:49:22.892Z,65.60
2022-09-05T14:51:53.219Z,65.60
2022-09-05T15:02:38.773Z,65.70
2022-09-05T15:03:00.357Z,65.80
2022-09-05T15:03:03.590Z,65.80
2022-09-05T15:05:41.072Z,65.80
2022-09-05T15:08:33.237Z,65.80
2022-09-05T15:12:19.781Z,65.90
2022-09-05T15:14:03.247Z,65.90
2022-09-05T15:16:31.977Z,65.90
2022-09-05T15:18:59.754Z,66.00
2022-09-05T15:21:34.008Z,66.00
2022-09-05T15:24:14.667Z,66.00
2022-09-05T15:26:52.692Z,66.00
2022-09-05T15:29:24.458Z,66.10
2022-09-05T15:32:00.972Z,66.10
2022-09-05T15:34:39.046Z,66.10
2022-09-05T15:37:24.051Z,66.10
2022-09-05T15:40:03.925Z,66.20
2022-09-05T15:42:37.637Z,66.10
2022-09-05T15:45:10.708Z,66.10
2022-09-05T15:47:43.757Z,66.10
2022-09-05T15:50:22.221Z,66.10
2022-09-05T15:52:55.299Z,66.10
2022-09-05T15:55:27.686Z,66.20
2022-09-05T15:57:59.096Z,66.10
2022-09-05T16:00:40.971Z,66.20
2022-09-05T16:05:19.611Z,66.10
2022-09-05T16:10:30.984Z,66.10
2022-09-05T16:10:45.711Z,66.10
2022-09-05T16:12:17.088Z,66.10
2022-09-05T16:14:39.815Z,66.10
2022-09-05T16:23:14.567Z,66.10
2022-09-05T16:23:34.072Z,66.10
2022-09-05T16:23:39.598Z,66.10
2022-09-05T16:26:09.621Z,66.20
2022-09-05T16:28:43.570Z,66.10
2022-09-05T16:31:17.713Z,66.20
2022-09-05T16:33:47.917Z,66.10
2022-09-05T16:36:19.947Z,66.10
2022-09-05T16:38:51.236Z,66.10
2022-09-05T16:41:38.803Z,66.10
2022-09-05T16:44:15.019Z,66.10
2022-09-05T16:46:51.683Z,66.10
2022-09-05T16:49:39.975Z,66.10
2022-09-05T16:52:17.370Z,66.10
2022-09-05T16:54:51.820Z,66.00
2022-09-05T16:57:25.510Z,66.00
2022-09-05T16:59:55.958Z,66.00
2022-09-05T17:02:29.028Z,66.00
2022-09-05T17:05:13.084Z,66.00
2022-09-05T17:08:01.319Z,66.00
2022-09-05T17:10:34.363Z,65.90
2022-09-05T17:13:03.390Z,65.90
2022-09-05T17:15:36.275Z,66.00
2022-09-05T17:18:22.317Z,66.10
2022-09-05T17:20:55.671Z,66.10
2022-09-05T17:29:15.649Z,66.20
2022-09-05T17:29:26.823Z,66.20
2022-09-05T17:32:51.763Z,66.20
2022-09-05T17:35:56.597Z,66.20
2022-09-05T17:38:47.729Z,66.20
2022-09-05T17:41:30.220Z,66.20
2022-09-05T17:44:05.803Z,66.20
2022-09-05T17:46:35.379Z,66.20
2022-09-05T17:49:20.010Z,66.10
2022-09-05T17:52:18.165Z,66.10
2022-09-05T17:54:49.711Z,66.10
2022-09-05T17:57:40.986Z,66.00
2022-09-05T18:00:48.865Z,65.90
2022-09-05T18:04:11.334Z,65.60
2022-09-05T18:06:59.360Z,65.30
2022-09-05T18:13:31.480Z,65.00
2022-09-05T18:16:10.492Z,64.80
2022-09-05T18:19:28.585Z,64.60
2022-09-05T18:21:48.328Z,64.40
2022-09-05T18:24:33.370Z,64.20
2022-09-05T18:28:03.048Z,64.00
2022-09-05T18:30:06.155Z,63.80
2022-09-05T18:32:42.941Z,63.50
2022-09-05T18:35:37.010Z,63.30
2022-09-05T18:38:16.382Z,63.00
2022-09-05T18:40:53.228Z,63.60
2022-09-05T18:43:51.293Z,62.60
2022-09-05T18:46:39.089Z,62.40
2022-09-05T18:50:21.752Z,62.10
2022-09-05T18:52:02.967Z,61.90
2022-09-05T18:54:34.716Z,61.70
2022-09-05T18:57:27.219Z,61.80
2022-09-05T19:00:00.962Z,61.80
2022-09-05T19:02:49.967Z,61.80
2022-09-05T19:05:28.559Z,61.90
2022-09-05T19:07:59.692Z,61.90
2022-09-05T19:10:34.387Z,61.90
2022-09-05T19:13:13.498Z,62.00
2022-09-05T19:15:49.705Z,62.10
2022-09-05T19:18:26.482Z,62.20
2022-09-05T19:21:12.040Z,62.20
2022-09-05T19:23:45.085Z,62.40
2022-09-05T19:26:13.175Z,62.50
2022-09-05T19:36:44.575Z,62.60
2022-09-05T19:37:05.135Z,62.70
2022-09-05T19:37:12.346Z,62.70
2022-09-05T19:37:30.347Z,62.80
2022-09-05T19:42:20.017Z,62.90
2022-09-05T19:47:43.863Z,63.00
2022-09-05T19:47:48.039Z,63.10
2022-09-05T19:48:35.754Z,63.10
2022-09-05T19:51:16.305Z,63.20
2022-09-05T19:53:47.770Z,63.20
2022-09-05T19:56:26.648Z,63.30
2022-09-05T19:59:01.152Z,63.40
2022-09-05T20:01:31.718Z,63.40
2022-09-05T20:04:00.084Z,63.40
2022-09-05T20:06:31.003Z,63.50
2022-09-05T20:09:16.196Z,63.60
2022-09-05T20:11:49.340Z,63.70
2022-09-05T20:14:20.220Z,63.70
2022-09-05T20:16:50.498Z,63.70
2022-09-05T20:19:25.547Z,63.70
2022-09-05T20:22:11.457Z,63.80
2022-09-05T20:24:51.105Z,63.80
2022-09-05T20:27:19.604Z,63.80
2022-09-05T20:29:57.123Z,64.20
2022-09-05T20:32:39.584Z,63.80
2022-09-05T20:39:43.760Z,63.80
2022-09-05T20:43:27.538Z,63.80
2022-09-05T20:43:30.258Z,63.80
2022-09-05T20:43:59.972Z,63.80
2022-09-05T20:51:17.054Z,63.80
2022-09-05T20:54:12.987Z,63.90
2022-09-05T20:54:15.600Z,63.90
2022-09-05T20:55:40.091Z,63.90
2022-09-05T20:58:11.656Z,63.90
2022-09-05T21:01:19.601Z,63.90
2022-09-05T21:03:36.494Z,63.90
2022-09-05T21:06:21.907Z,63.90
2022-09-05T21:08:50.514Z,64.00
2022-09-05T21:11:18.489Z,64.00
2022-09-05T21:13:52.206Z,64.00
2022-09-05T21:16:22.624Z,64.00
2022-09-05T21:18:52.135Z,64.00
2022-09-05T21:21:29.476Z,64.00
2022-09-05T21:24:17.566Z,64.00
2022-09-05T21:26:48.170Z,64.10
2022-09-05T21:29:17.968Z,64.00
2022-09-05T21:31:54.449Z,64.10
2022-09-05T21:34:27.895Z,64.10
2022-09-05T21:37:07.903Z,64.20
2022-09-05T21:39:39.867Z,64.20
2022-09-05T21:42:54.740Z,64.10
2022-09-05T21:47:44.821Z,64.20
2022-09-05T21:47:53.100Z,64.10
2022-09-05T21:50:30.836Z,64.10
2022-09-05T21:55:51.752Z,64.20
2022-09-05T21:59:22.284Z,64.30
2022-09-05T21:59:28.693Z,64.30
2022-09-05T22:01:44.889Z,64.30
2022-09-05T22:04:18.871Z,64.30
2022-09-05T22:06:48.154Z,64.30
2022-09-05T22:09:17.401Z,64.30
2022-09-05T22:11:49.938Z,64.30
2022-09-05T22:14:17.947Z,64.30
2022-09-05T22:16:46.417Z,64.30
2022-09-05T22:19:17.644Z,64.40
2022-09-05T22:21:45.475Z,64.40
2022-09-05T22:24:13.807Z,64.40
2022-09-05T22:27:11.341Z,64.40
2022-09-05T22:29:34.452Z,64.40
2022-09-05T22:32:02.445Z,64.40
2022-09-05T22:34:30.691Z,64.50
2022-09-05T22:36:58.405Z,64.40
2022-09-05T22:39:36.456Z,64.50
2022-09-05T22:42:10.436Z,64.50
2022-09-05T22:44:40.030Z,64.50
2022-09-05T22:47:08.249Z,64.50
2022-09-05T22:49:37.015Z,64.50
2022-09-05T22:52:05.881Z,64.60
2022-09-05T22:54:33.729Z,64.60
2022-09-05T22:57:01.451Z,64.60
2022-09-05T22:59:30.487Z,64.60
2022-09-05T23:01:58.288Z,64.60
2022-09-05T23:04:26.518Z,64.60
2022-09-05T23:06:54.321Z,64.70
2022-09-05T23:09:22.205Z,64.70
2022-09-05T23:11:49.901Z,64.60
2022-09-05T23:14:17.620Z,64.70
2022-09-05T23:16:46.651Z,64.70
2022-09-05T23:19:14.378Z,64.70
2022-09-05T23:21:42.666Z,64.70
2022-09-05T23:24:10.420Z,64.70
2022-09-05T23:26:38.104Z,64.80
2022-09-05T23:29:05.897Z,64.80
2022-09-05T23:31:33.647Z,64.80
2022-09-05T23:34:02.757Z,64.80
2022-09-05T23:36:31.282Z,64.80
2022-09-05T23:38:59.284Z,64.80
2022-09-05T23:41:26.985Z,64.80
2022-09-05T23:43:54.737Z,64.80
2022-09-05T23:46:22.509Z,64.80
2022-09-05T23:48:50.262Z,64.80
2022-09-05T23:51:19.297Z,64.90
2022-09-05T23:53:47.011Z,64.90
2022-09-05T23:56:14.720Z,64.90
2022-09-05T23:58:42.442Z,64.90
